Ellington Field
KEFD : now visible

Airfield :











YOU CAN JOIN US ON...

 
LOGIN :

Register | Disclaimer

   EN    FR    IT 

 









Legend :    VFR   Marginal VFR   IFR   Intensive IFR   Very Intensive IFR
Visi :
Ceiling :
>= 8 km
>= 3000ft
5 to 8 km
1000 to 3000 ft
1500m to 5 km
500 to 1000 ft
800 to 1500m
200 to 500 ft
< 800m
< 200 ft
Symbols :   Thunderstorms  Fog  Heavy snow  Heavy precipitations  Wind > 20 kt






- Airport Elevation : 32 ft


KEFD - Ellington Field

CURRENT METAR :
  • 121154Z 00000KT 10SM CLR 13/10 A3022

EXPIRED METARs :
  • 120954Z 00000KT 10SM CLR 14/10 A3017
  • 120854Z 0000KT 10SM CLR 15/10 A3016
  • 120754Z 0000KT 10SM CLR 15/10 A3015

TAF TAF KEFD
Valid from the 12 at 12:00 until the 13 at 18:00 UTC


121200Z 1212/1318 VRB06KT 9999 SKC QNH3018INS
BECMG 1315/1316 16010G15KT 9999 SKC 510063 QNH3023INS TX25/1218Z TN13/1212Z
KZHU FIR / North America



MET'MAP, your aeronautical weather chart ! - Copyright ORBIFLY December 2007 - Disclaimer

ORBIFLY MET'MAP TEAM :

Programming & Development : Alexandra Zaïnal
Original concept : Baudouin d'Aumeries
Technical & hardware support : Manuel Goepfert
Assistance : Marc-Olivier Méhu




SOURCES & CREDITS :

   NOAA       Earth
Advisory